Pagina principale
METAR-TAF:

METAR-TAF

Aeroporti :

Peer, Belgio

latitudine: 51-10N, longitudine: 005-28E, altezza: 55 m

Osservazione

Il bollettino è stato emesso 24 minuti fa, alle 02:55 UTC
Vento 3 kt da sud-ovest
Temperature 5°C
Umidità 70%
Pressione 1024 hPa
Visibilità 10 km o più

METAR: EBBL 240255Z AUTO 23003KT 9999 BKN098/// OVC140/// 05/00 Q1024 BLU

Ora: 04:19 (03:19 UTC)


TAF: mancante

Osservazioni e previsioni meteorologiche di più di 4000 aeroporti (messaggi METAR e TAF).

Le stazioni disponibili sono rappresentate dai dischi gialli e rossi sulla carta.

Puntare il mouse per vedere il nome della stazione.

Clicca sopra per visualizzare le osservazioni e previsioni meteorologiche.

Per cambiare la mappa : fare clic sui pulsanti verdi con una croce nera per ingrandire, il pulsante verde con un trattino per diminuire, o sulla freccia verde per le mappe adiacenti.


METAR-TAF: